Time;durP1;ratioP1;P1;durP2;ratioP2;P2;SDS_P1;SDS_P2;PMS_P1;PMS_P2;Temp;Humidity;BMP_temperature;BMP_pressure;BME280_temperature;BME280_humidity;BME280_pressure;Samples;Min_cycle;Max_cycle;Signal;HPM_P1;HPM_P2
2022/07/01 00:01:40;;;;;;;57.17;25.40;;;;;;;11.72;100.00;101560.28;5052150;28;20025;-73
2022/07/01 00:04:06;;;;;;;59.30;26.52;;;;;;;11.69;100.00;101557.88;5052183;28;20086;-73
2022/07/01 00:06:33;;;;;;;53.33;25.08;;;;;;;11.67;100.00;101562.50;5051993;28;20025;-74
2022/07/01 00:08:58;;;;;;;62.83;26.40;;;;;;;11.65;100.00;101563.47;5052026;28;20052;-73
2022/07/01 00:11:23;;;;;;;57.17;26.20;;;;;;;11.63;100.00;101562.75;5051708;28;20033;-74
2022/07/01 00:13:49;;;;;;;57.22;26.38;;;;;;;11.63;100.00;101584.06;5051980;28;20033;-74
2022/07/01 00:16:14;;;;;;;49.58;23.50;;;;;;;11.59;100.00;101577.31;5052225;28;20398;-74
2022/07/01 00:18:40;;;;;;;65.28;27.00;;;;;;;11.59;100.00;101577.31;5051894;28;20029;-74
2022/07/01 00:21:05;;;;;;;57.92;25.33;;;;;;;11.61;100.00;101575.38;5051732;28;20064;-72
2022/07/01 00:23:31;;;;;;;63.28;26.38;;;;;;;11.58;100.00;101580.09;5052273;28;20036;-73
2022/07/01 00:25:57;;;;;;;69.50;28.63;;;;;;;11.54;100.00;101576.84;5051772;28;20529;-73
2022/07/01 00:28:22;;;;;;;69.47;27.27;;;;;;;11.50;100.00;101567.41;5051819;28;20103;-74
2022/07/01 00:30:47;;;;;;;79.53;29.05;;;;;;;11.52;100.00;101585.94;5052206;28;20119;-73
2022/07/01 00:33:13;;;;;;;65.88;28.15;;;;;;;11.51;100.00;101592.22;5051879;28;20349;-73
2022/07/01 00:35:38;;;;;;;73.43;28.75;;;;;;;11.52;100.00;101592.09;5051285;28;20037;-74
2022/07/01 00:38:04;;;;;;;81.00;31.17;;;;;;;11.52;100.00;101597.44;5051587;28;20063;-73
2022/07/01 00:40:30;;;;;;;67.32;29.33;;;;;;;11.50;100.00;101604.72;5051294;28;20079;-73
2022/07/01 00:42:55;;;;;;;68.75;28.10;;;;;;;11.45;100.00;101601.59;5051904;28;20049;-74
2022/07/01 00:45:21;;;;;;;62.80;26.45;;;;;;;11.42;100.00;101601.81;5050302;28;20087;-80
2022/07/01 00:47:47;;;;;;;64.68;27.63;;;;;;;11.38;100.00;101601.25;5051809;28;20153;-73
2022/07/01 00:50:15;;;;;;;68.05;28.55;;;;;;;11.38;100.00;101595.91;5051730;28;20098;-73
2022/07/01 00:52:42;;;;;;;78.47;29.17;;;;;;;11.38;100.00;101595.09;5051675;28;20029;-74
2022/07/01 00:55:10;;;;;;;66.53;27.02;;;;;;;11.41;100.00;101586.84;5051438;28;20029;-73
2022/07/01 00:57:39;;;;;;;67.85;27.98;;;;;;;11.42;100.00;101589.38;5051663;28;20033;-74
2022/07/01 01:00:09;;;;;;;73.45;28.63;;;;;;;11.40;100.00;101580.63;5051380;28;20029;-74
2022/07/01 01:02:35;;;;;;;75.10;28.75;;;;;;;11.33;100.00;101575.94;5051518;28;20028;-73
2022/07/01 01:05:02;;;;;;;68.30;27.33;;;;;;;11.26;100.00;101572.94;5051368;28;20178;-73
2022/07/01 01:07:27;;;;;;;76.30;27.85;;;;;;;11.22;100.00;101571.50;5051628;28;20037;-74
2022/07/01 01:09:53;;;;;;;75.78;29.33;;;;;;;11.23;100.00;101578.53;5051428;28;20112;-74
2022/07/01 01:12:18;;;;;;;69.65;27.58;;;;;;;11.21;100.00;101573.34;5050252;28;20075;-73
2022/07/01 01:14:45;;;;;;;73.25;27.13;;;;;;;11.19;100.00;101571.75;5051181;28;20086;-72
2022/07/01 01:17:12;;;;;;;72.78;26.52;;;;;;;11.13;100.00;101573.09;5051696;28;20049;-72
2022/07/01 01:19:38;;;;;;;74.45;26.98;;;;;;;11.10;100.00;101579.50;5051093;28;20044;-72
2022/07/01 01:22:03;;;;;;;70.50;25.83;;;;;;;11.06;100.00;101590.53;5051689;28;20087;-73
2022/07/01 01:24:29;;;;;;;66.05;25.98;;;;;;;11.01;100.00;101585.59;5051149;28;20037;-73
2022/07/01 01:26:54;;;;;;;74.70;27.10;;;;;;;11.00;100.00;101589.25;5054411;28;20346;-75
2022/07/01 01:29:19;;;;;;;84.10;29.10;;;;;;;11.00;100.00;101594.56;5055523;28;20084;-75
2022/07/01 01:31:45;;;;;;;71.63;26.80;;;;;;;11.04;100.00;101595.16;5054982;28;20029;-73
2022/07/01 01:34:12;;;;;;;72.55;26.08;;;;;;;11.05;100.00;101586.19;5055028;28;20037;-73
2022/07/01 01:36:37;;;;;;;76.45;26.30;;;;;;;11.08;100.00;101578.78;5053501;28;20033;-74
2022/07/01 01:39:07;;;;;;;71.30;25.25;;;;;;;11.11;100.00;101591.88;5054683;28;20119;-74
2022/07/01 01:41:32;;;;;;;72.63;26.38;;;;;;;11.21;100.00;101589.31;5055080;28;20056;-74
2022/07/01 01:43:58;;;;;;;73.18;25.30;;;;;;;11.31;100.00;101597.38;5055124;28;20028;-73
2022/07/01 01:46:23;;;;;;;73.15;26.23;;;;;;;11.42;100.00;101600.03;5054778;28;20119;-73
2022/07/01 01:48:48;;;;;;;64.22;25.50;;;;;;;11.51;100.00;101606.41;5053701;28;20086;-73
2022/07/01 01:51:14;;;;;;;59.85;23.73;;;;;;;11.58;100.00;101615.56;5053712;28;20441;-74
2022/07/01 01:53:39;;;;;;;62.53;22.75;;;;;;;11.60;100.00;101613.66;5053276;28;20029;-74
2022/07/01 01:56:05;;;;;;;52.75;22.38;;;;;;;11.63;100.00;101620.56;5054815;28;20117;-74
2022/07/01 01:58:30;;;;;;;55.85;23.27;;;;;;;11.65;100.00;101627.44;5054783;28;20060;-72
2022/07/01 02:00:55;;;;;;;59.28;23.48;;;;;;;11.70;100.00;101624.38;5054592;28;20385;-72
2022/07/01 02:03:21;;;;;;;57.25;22.23;;;;;;;11.72;100.00;101622.47;5054760;28;20410;-74
2022/07/01 02:05:46;;;;;;;52.97;21.98;;;;;;;11.76;100.00;101615.03;5053843;28;20025;-74
2022/07/01 02:08:11;;;;;;;52.75;21.58;;;;;;;11.78;100.00;101611.28;5054365;28;20041;-73
2022/07/01 02:10:37;;;;;;;50.33;20.17;;;;;;;11.77;100.00;101609.56;5054302;28;20033;-73
2022/07/01 02:13:02;;;;;;;45.70;20.23;;;;;;;11.72;100.00;101609.13;5053994;28;20075;-73
2022/07/01 02:15:27;;;;;;;44.90;17.90;;;;;;;11.64;100.00;101601.78;5053376;28;20095;-72
2022/07/01 02:17:56;;;;;;;38.03;17.48;;;;;;;11.58;100.00;101607.59;5054330;28;20037;-73
2022/07/01 02:20:21;;;;;;;42.72;17.67;;;;;;;11.51;100.00;101613.56;5053075;28;20414;-73
2022/07/01 02:22:47;;;;;;;43.63;17.13;;;;;;;11.45;100.00;101614.94;5054208;28;20067;-73
2022/07/01 02:25:12;;;;;;;43.67;17.45;;;;;;;11.39;100.00;101618.06;5054821;28;20056;-73
2022/07/01 02:27:37;;;;;;;48.00;18.15;;;;;;;11.40;100.00;101625.94;5054173;28;20025;-74
2022/07/01 02:30:05;;;;;;;43.20;18.13;;;;;;;11.37;100.00;101615.53;5052955;28;20029;-73
2022/07/01 02:32:31;;;;;;;43.10;17.00;;;;;;;11.36;100.00;101619.19;5052992;28;20469;-73
2022/07/01 02:34:56;;;;;;;39.28;15.93;;;;;;;11.36;100.00;101618.31;5055233;28;20029;-73
2022/07/01 02:37:22;;;;;;;43.85;16.13;;;;;;;11.34;100.00;101623.78;5055000;28;20485;-73
2022/07/01 02:39:47;;;;;;;36.63;15.80;;;;;;;11.33;100.00;101622.09;5054585;28;20044;-74
2022/07/01 02:42:28;;;;;;;36.58;16.15;;;;;;;11.31;100.00;101637.34;5055765;28;20528;-73
2022/07/01 02:44:54;;;;;;;40.95;16.15;;;;;;;11.29;100.00;101631.31;5055347;28;20473;-73
2022/07/01 02:47:21;;;;;;;38.42;15.82;;;;;;;11.28;100.00;101637.59;5055656;28;20055;-73
2022/07/01 02:49:47;;;;;;;35.80;15.00;;;;;;;11.24;100.00;101631.69;5053004;28;20452;-73
2022/07/01 02:52:12;;;;;;;32.83;14.90;;;;;;;11.20;100.00;101627.56;5054283;28;20029;-72
2022/07/01 02:54:38;;;;;;;33.83;14.77;;;;;;;11.21;100.00;101626.59;5053948;28;20476;-72
2022/07/01 02:57:03;;;;;;;29.27;14.02;;;;;;;11.18;100.00;101620.66;5053451;28;20032;-73
2022/07/01 02:59:29;;;;;;;37.30;13.95;;;;;;;11.15;100.00;101627.09;5052329;28;20111;-73
2022/07/01 03:01:54;;;;;;;37.88;14.55;;;;;;;11.11;100.00;101629.16;5052271;28;20122;-72
2022/07/01 03:04:20;;;;;;;35.30;14.00;;;;;;;11.09;100.00;101631.09;5053294;28;20504;-73
2022/07/01 03:06:45;;;;;;;38.88;15.40;;;;;;;11.07;100.00;101632.19;5053380;28;20078;-73
2022/07/01 03:09:11;;;;;;;31.48;13.48;;;;;;;11.01;100.00;101632.69;5053513;28;20039;-73
2022/07/01 03:11:36;;;;;;;33.38;14.35;;;;;;;11.00;100.00;101633.63;5053346;28;20039;-73
2022/07/01 03:14:01;;;;;;;33.58;13.93;;;;;;;10.99;100.00;101632.81;5053133;28;20112;-73
2022/07/01 03:16:27;;;;;;;33.30;13.35;;;;;;;11.00;100.00;101637.16;5053618;28;20029;-73
2022/07/01 03:18:52;;;;;;;34.10;14.55;;;;;;;10.98;100.00;101635.59;5054107;28;20031;-73
2022/07/01 03:21:19;;;;;;;32.17;14.32;;;;;;;10.95;100.00;101631.34;5052119;28;20033;-73
2022/07/01 03:23:44;;;;;;;29.90;13.93;;;;;;;10.94;100.00;101634.97;5052258;28;20039;-73
2022/07/01 03:26:09;;;;;;;38.88;14.65;;;;;;;10.91;100.00;101632.56;5052977;28;20025;-73
2022/07/01 03:28:35;;;;;;;29.90;14.35;;;;;;;10.89;100.00;101627.34;5053236;28;20036;-73
2022/07/01 03:31:01;;;;;;;38.38;16.30;;;;;;;10.90;100.00;101629.06;5053016;28;20083;-74
2022/07/01 03:33:27;;;;;;;40.58;16.40;;;;;;;10.87;100.00;101623.97;5052231;28;20452;-73
2022/07/01 03:35:52;;;;;;;41.53;16.20;;;;;;;10.88;100.00;101628.34;5051551;28;20048;-73
2022/07/01 03:38:17;;;;;;;39.83;18.80;;;;;;;10.91;100.00;101635.22;5052975;28;20029;-73
2022/07/01 03:40:43;;;;;;;40.15;17.08;;;;;;;10.95;100.00;101639.34;5052900;28;20025;-74
2022/07/01 03:43:09;;;;;;;35.88;16.42;;;;;;;10.96;100.00;101645.50;5052499;28;20057;-73
2022/07/01 03:45:34;;;;;;;42.90;17.33;;;;;;;10.94;100.00;101648.28;5052793;28;20029;-73
2022/07/01 03:48:02;;;;;;;39.92;17.20;;;;;;;10.93;100.00;101651.94;5052398;28;20086;-72
2022/07/01 03:50:27;;;;;;;43.78;16.95;;;;;;;10.91;100.00;101657.38;5052512;28;20033;-73
2022/07/01 03:55:38;;;;;;;43.13;17.92;;;;;;;10.93;100.00;101667.91;5052831;28;20060;-73
2022/07/01 03:58:03;;;;;;;44.20;17.65;;;;;;;10.94;100.00;101662.47;5052380;28;20464;-73
2022/07/01 04:00:32;;;;;;;47.00;19.00;;;;;;;11.00;100.00;101663.78;5052367;28;20033;-73
2022/07/01 04:02:58;;;;;;;45.78;17.88;;;;;;;11.04;100.00;101662.56;5052086;28;20029;-72
2022/07/01 04:05:23;;;;;;;56.88;20.13;;;;;;;11.07;100.00;101662.31;5052241;28;20033;-72
2022/07/01 04:07:49;;;;;;;44.40;19.17;;;;;;;11.08;100.00;101661.34;5051921;28;20037;-72
2022/07/01 04:10:14;;;;;;;38.80;18.35;;;;;;;11.11;100.00;101665.59;5052236;28;20037;-73
2022/07/01 04:12:40;;;;;;;37.88;17.45;;;;;;;11.10;100.00;101669.22;5052480;28;20048;-73
2022/07/01 04:15:06;;;;;;;54.65;17.67;;;;;;;11.11;100.00;101673.59;5052888;28;20104;-72
2022/07/01 04:17:31;;;;;;;47.83;18.58;;;;;;;11.10;100.00;101663.91;5052226;28;20037;-73
2022/07/01 04:19:57;;;;;;;39.80;16.42;;;;;;;11.11;100.00;101670.94;5051982;28;20094;-73
2022/07/01 04:22:35;;;;;;;39.05;15.85;;;;;;;11.14;100.00;101669.81;5052599;28;20037;-73
2022/07/01 04:25:03;;;;;;;39.55;16.92;;;;;;;11.16;100.00;101681.22;5052282;28;20055;-73
2022/07/01 04:27:29;;;;;;;45.97;17.95;;;;;;;11.18;100.00;101685.47;5051945;28;20098;-74
2022/07/01 04:29:54;;;;;;;34.38;15.98;;;;;;;11.23;100.00;101685.09;5051920;28;20070;-73
2022/07/01 04:32:19;;;;;;;45.53;19.05;;;;;;;11.28;100.00;101688.22;5052128;28;20087;-73
2022/07/01 04:34:45;;;;;;;39.85;16.48;;;;;;;11.32;100.00;101678.19;5052052;28;20116;-73
2022/07/01 04:37:10;;;;;;;45.10;16.85;;;;;;;11.31;100.00;101681.81;5051926;28;20465;-73
2022/07/01 04:39:35;;;;;;;44.70;15.50;;;;;;;11.29;100.00;101689.91;5050530;28;20525;-73
2022/07/01 04:42:01;;;;;;;32.33;15.60;;;;;;;11.26;100.00;101691.00;5050420;28;20053;-73
2022/07/01 04:44:34;;;;;;;38.75;16.17;;;;;;;11.25;100.00;101694.63;5052034;28;20491;-73
2022/07/01 04:47:01;;;;;;;42.10;16.27;;;;;;;11.27;100.00;101700.69;5051725;28;20033;-73
2022/07/01 04:49:27;;;;;;;35.88;16.05;;;;;;;11.32;100.00;101691.50;5051818;28;20040;-72
2022/07/01 04:51:53;;;;;;;39.55;15.32;;;;;;;11.31;100.00;101698.63;5051916;28;20460;-72
2022/07/01 04:54:19;;;;;;;37.88;15.15;;;;;;;11.32;100.00;101689.66;5052233;28;20044;-73
2022/07/01 04:56:44;;;;;;;39.78;16.02;;;;;;;11.35;100.00;101685.91;5052199;28;20380;-72
2022/07/01 04:59:10;;;;;;;36.35;15.25;;;;;;;11.37;100.00;101683.97;5050445;28;20081;-73
2022/07/01 05:01:35;;;;;;;37.63;14.23;;;;;;;11.39;100.00;101692.66;5054717;28;20059;-72
2022/07/01 05:04:01;;;;;;;34.22;14.23;;;;;;;11.37;100.00;101695.47;5053991;28;20149;-73
2022/07/01 05:06:26;;;;;;;35.42;14.60;;;;;;;11.37;100.00;101691.97;5056081;28;20025;-72
2022/07/01 05:08:52;;;;;;;32.22;13.43;;;;;;;11.41;100.00;101696.91;5055535;28;20103;-75
2022/07/01 05:11:18;;;;;;;32.83;14.07;;;;;;;11.46;100.00;101699.22;5054716;28;20095;-72
2022/07/01 05:13:43;;;;;;;35.00;13.77;;;;;;;11.55;100.00;101705.63;5055759;28;20401;-71
2022/07/01 05:16:09;;;;;;;31.75;13.95;;;;;;;11.59;100.00;101717.72;5055182;28;20040;-73
2022/07/01 05:24:05;;;;;;;29.25;13.35;;;;;;;11.79;100.00;101718.75;5056014;28;20163;-73
2022/07/01 05:26:30;;;;;;;30.70;12.75;;;;;;;11.90;100.00;101723.22;5056300;28;20040;-74
2022/07/01 05:28:56;;;;;;;28.65;12.50;;;;;;;11.97;100.00;101727.09;5056412;28;20029;-73
2022/07/01 05:31:21;;;;;;;30.50;11.40;;;;;;;12.04;100.00;101728.28;5055734;28;20033;-72
2022/07/01 05:33:47;;;;;;;30.75;11.32;;;;;;;12.10;100.00;101724.28;5054106;28;20094;-74
2022/07/01 05:36:13;;;;;;;36.13;10.88;;;;;;;12.12;100.00;101731.19;5055791;28;20164;-74
2022/07/01 05:38:39;;;;;;;27.92;10.40;;;;;;;12.20;100.00;101729.72;5055387;28;20411;-73
2022/07/01 05:41:04;;;;;;;30.33;10.82;;;;;;;12.35;100.00;101736.41;5055483;28;20103;-73
2022/07/01 05:43:30;;;;;;;27.70;10.65;;;;;;;12.61;100.00;101728.84;5056061;28;20111;-72
2022/07/01 05:45:56;;;;;;;27.35;11.25;;;;;;;12.88;100.00;101731.00;5055568;28;20067;-78
2022/07/01 05:48:22;;;;;;;24.15;8.48;;;;;;;12.98;100.00;101723.03;5055547;28;20024;-72
2022/07/01 05:50:47;;;;;;;21.73;7.43;;;;;;;12.97;100.00;101740.06;5055527;28;20029;-73
2022/07/01 05:53:13;;;;;;;20.02;7.35;;;;;;;12.92;100.00;101730.72;5055178;28;20082;-72
2022/07/01 05:55:38;;;;;;;17.70;6.43;;;;;;;12.87;100.00;101720.44;5037621;28;20135;-72
2022/07/01 05:58:06;;;;;;;24.15;6.72;;;;;;;12.80;100.00;101721.97;5055287;28;20029;-73
2022/07/01 06:00:32;;;;;;;16.13;5.90;;;;;;;12.74;100.00;101722.47;5054215;28;20040;-73
2022/07/01 06:02:57;;;;;;;25.48;6.50;;;;;;;12.62;100.00;101724.38;5055507;28;20037;-74
2022/07/01 06:05:23;;;;;;;16.98;6.82;;;;;;;12.56;100.00;101719.56;5055324;28;20033;-73
2022/07/01 06:07:48;;;;;;;19.90;6.72;;;;;;;12.53;100.00;101723.34;5053785;28;20074;-72
2022/07/01 06:10:13;;;;;;;20.15;6.20;;;;;;;12.59;100.00;101720.13;5054641;28;20044;-72
2022/07/01 06:12:40;;;;;;;19.90;6.50;;;;;;;12.69;100.00;101718.38;5054343;28;20480;-72
2022/07/01 06:15:08;;;;;;;17.30;6.20;;;;;;;12.90;100.00;101717.50;5054890;28;20032;-72
2022/07/01 06:17:34;;;;;;;14.40;6.03;;;;;;;13.15;100.00;101712.69;5055003;28;20511;-73
2022/07/01 06:20:00;;;;;;;24.48;6.65;;;;;;;13.47;100.00;101719.72;5055227;28;20119;-73
2022/07/01 06:22:25;;;;;;;16.40;6.10;;;;;;;13.71;100.00;101720.19;5055437;28;20068;-72
2022/07/01 06:24:51;;;;;;;17.48;7.32;;;;;;;13.85;100.00;101715.44;5054757;28;20029;-73
2022/07/01 06:27:16;;;;;;;14.63;5.32;;;;;;;13.93;100.00;101720.94;5054441;28;20466;-72
2022/07/01 06:29:41;;;;;;;15.07;4.78;;;;;;;13.98;100.00;101726.72;5054522;28;20385;-73
2022/07/01 06:32:07;;;;;;;14.18;4.70;;;;;;;14.08;100.00;101719.53;5055160;28;20033;-72
2022/07/01 06:34:33;;;;;;;14.38;4.72;;;;;;;14.30;100.00;101728.25;5053377;28;20033;-72
2022/07/01 06:37:03;;;;;;;14.82;5.15;;;;;;;14.43;100.00;101726.13;5054259;28;20041;-73
2022/07/01 06:39:29;;;;;;;15.07;4.82;;;;;;;14.66;100.00;101716.97;5054964;28;20049;-73
2022/07/01 06:41:55;;;;;;;15.73;4.57;;;;;;;14.94;100.00;101718.72;5054714;28;20135;-74
2022/07/01 06:44:21;;;;;;;16.27;3.80;;;;;;;15.34;100.00;101706.81;5052932;28;20029;-73
2022/07/01 06:46:46;;;;;;;13.85;4.28;;;;;;;15.57;100.00;101710.94;5054234;28;20488;-74
2022/07/01 06:49:12;;;;;;;14.63;3.90;;;;;;;15.49;100.00;101700.97;5054118;28;20036;-73
2022/07/01 06:51:37;;;;;;;9.95;3.25;;;;;;;15.31;100.00;101709.81;5054087;28;20465;-73
2022/07/01 06:54:03;;;;;;;18.00;3.60;;;;;;;15.22;100.00;101702.66;5055788;28;20433;-74
2022/07/01 06:56:28;;;;;;;13.52;3.70;;;;;;;15.27;100.00;101707.56;5058243;28;20396;-74
2022/07/01 06:58:55;;;;;;;16.90;4.38;;;;;;;15.24;100.00;101702.50;5058427;28;20116;-74
2022/07/01 07:01:20;;;;;;;14.52;3.42;;;;;;;15.20;100.00;101706.47;5057205;28;20043;-74
2022/07/01 07:03:46;;;;;;;21.60;3.90;;;;;;;15.32;100.00;101710.66;5057172;28;20441;-72
2022/07/01 07:06:11;;;;;;;12.18;3.05;;;;;;;15.39;100.00;101711.75;5054913;28;20464;-72
2022/07/01 07:08:37;;;;;;;10.90;2.70;;;;;;;15.27;100.00;101716.47;5055681;28;20087;-73
2022/07/01 07:11:03;;;;;;;16.73;4.00;;;;;;;15.18;100.00;101719.19;5055818;28;20509;-74
2022/07/01 07:13:28;;;;;;;9.98;3.10;;;;;;;15.15;100.00;101731.91;5054382;28;20037;-72
2022/07/01 07:15:54;;;;;;;11.27;3.38;;;;;;;15.18;100.00;101720.03;5052998;28;20039;-72
2022/07/01 07:18:22;;;;;;;11.88;2.92;;;;;;;15.24;100.00;101724.81;5054238;28;20433;-73
2022/07/01 07:20:48;;;;;;;14.75;2.58;;;;;;;15.20;100.00;101726.09;5052803;28;20029;-72
2022/07/01 07:23:15;;;;;;;8.70;2.60;;;;;;;15.20;100.00;101730.59;5052582;28;20397;-72
2022/07/01 07:25:40;;;;;;;13.60;2.95;;;;;;;15.15;100.00;101721.19;5053902;28;20041;-73
2022/07/01 07:28:05;;;;;;;8.93;2.50;;;;;;;15.07;100.00;101730.94;5053709;28;20410;-74
2022/07/01 07:30:31;;;;;;;9.88;2.35;;;;;;;14.97;100.00;101731.84;5054006;28;20065;-74
2022/07/01 07:32:56;;;;;;;7.30;2.40;;;;;;;14.90;100.00;101732.53;5052245;28;20056;-74
2022/07/01 07:35:22;;;;;;;10.52;2.55;;;;;;;15.00;100.00;101736.03;5052246;28;20474;-75
2022/07/01 07:37:47;;;;;;;8.60;2.17;;;;;;;15.24;100.00;101748.09;5051923;28;20040;-74
2022/07/01 07:40:17;;;;;;;7.15;1.77;;;;;;;15.79;100.00;101753.47;5053111;28;20476;-74
2022/07/01 07:42:44;;;;;;;8.13;1.83;;;;;;;16.12;96.26;101755.63;5053064;28;20132;-75
2022/07/01 07:45:11;;;;;;;14.82;2.03;;;;;;;16.23;95.59;101768.84;5053375;28;20041;-75
2022/07/01 07:47:37;;;;;;;8.55;2.10;;;;;;;16.00;98.69;101772.00;5053437;28;20033;-75
2022/07/01 07:50:07;;;;;;;10.38;2.42;;;;;;;15.60;100.00;101767.81;5035634;28;20326;-74
2022/07/01 07:52:32;;;;;;;11.85;2.50;;;;;;;15.16;100.00;101768.41;5053110;28;20032;-74
2022/07/01 07:54:58;;;;;;;12.57;2.53;;;;;;;14.81;100.00;101774.47;5051704;28;20043;-73
2022/07/01 07:57:23;;;;;;;15.05;2.70;;;;;;;14.55;100.00;101771.50;5052668;28;20521;-74
2022/07/01 07:59:48;;;;;;;11.35;3.13;;;;;;;14.41;100.00;101776.31;5052787;28;20115;-74
2022/07/01 08:02:14;;;;;;;9.43;2.90;;;;;;;14.38;100.00;101771.22;5052860;28;20027;-74
2022/07/01 08:04:39;;;;;;;9.98;2.63;;;;;;;14.39;100.00;101772.94;5052135;28;20120;-75
2022/07/01 08:07:05;;;;;;;11.27;2.55;;;;;;;14.38;100.00;101773.91;5052608;28;20033;-73
2022/07/01 08:09:34;;;;;;;8.32;2.85;;;;;;;14.59;100.00;101776.44;5052726;28;20435;-74
2022/07/01 08:12:00;;;;;;;5.35;2.00;;;;;;;14.88;100.00;101769.38;5052451;28;20401;-77
2022/07/01 08:14:25;;;;;;;4.18;2.05;;;;;;;15.12;100.00;101772.41;5052036;28;20040;-73
2022/07/01 08:16:51;;;;;;;10.48;2.33;;;;;;;15.30;100.00;101783.22;5051157;28;20056;-74
2022/07/01 08:19:16;;;;;;;10.23;1.92;;;;;;;15.56;100.00;101776.31;5052350;28;20029;-74
2022/07/01 08:21:41;;;;;;;10.07;2.25;;;;;;;15.59;100.00;101779.53;5052344;28;20078;-71
2022/07/01 08:24:07;;;;;;;6.90;1.83;;;;;;;15.40;100.00;101785.81;5052841;28;20139;-73
2022/07/01 08:26:32;;;;;;;5.95;1.70;;;;;;;15.12;100.00;101780.44;5051308;28;20504;-72
2022/07/01 08:28:58;;;;;;;6.63;1.83;;;;;;;15.04;100.00;101784.84;5052787;28;20033;-73
2022/07/01 08:31:23;;;;;;;8.10;1.73;;;;;;;15.21;100.00;101783.22;5052825;28;20029;-73
2022/07/01 08:33:48;;;;;;;6.07;1.67;;;;;;;15.20;100.00;101778.84;5052386;28;20032;-72
2022/07/01 08:36:14;;;;;;;4.88;1.60;;;;;;;15.39;100.00;101788.66;5050900;28;20033;-71
2022/07/01 08:38:40;;;;;;;4.40;1.60;;;;;;;15.86;100.00;101792.13;5052431;28;20462;-72
2022/07/01 08:41:05;;;;;;;7.68;1.67;;;;;;;16.39;100.00;101794.97;5051894;28;20037;-72
2022/07/01 08:43:31;;;;;;;9.30;2.10;;;;;;;17.09;98.63;101794.19;5052459;28;20040;-71
2022/07/01 08:45:58;;;;;;;16.92;2.03;;;;;;;17.79;90.19;101793.16;5052691;28;20079;-71
2022/07/01 08:48:24;;;;;;;6.40;1.70;;;;;;;18.03;89.91;101795.13;5051874;28;20207;-72
2022/07/01 08:50:50;;;;;;;6.93;1.90;;;;;;;17.93;89.23;101799.81;5050666;28;20112;-71
2022/07/01 08:53:15;;;;;;;5.85;1.50;;;;;;;17.69;88.19;101808.59;5050839;28;20037;-72
2022/07/01 08:58:27;;;;;;;8.07;2.00;;;;;;;18.30;85.86;101807.47;5052541;28;20051;-82
2022/07/01 09:00:53;;;;;;;6.10;2.17;;;;;;;18.26;83.70;101810.66;5034352;28;20484;-75
2022/07/01 09:03:22;;;;;;;7.57;1.98;;;;;;;18.26;85.99;101811.50;5052292;28;20029;-72
2022/07/01 09:05:51;;;;;;;10.88;2.47;;;;;;;18.46;85.22;101820.09;5051915;28;20028;-71
2022/07/01 09:08:17;;;;;;;6.47;2.10;;;;;;;19.33;79.51;101819.53;5051866;28;20051;-73
2022/07/01 09:10:42;;;;;;;8.18;1.90;;;;;;;20.29;72.53;101816.72;5050469;28;20034;-72
2022/07/01 09:13:10;;;;;;;5.93;1.77;;;;;;;20.59;66.59;101814.13;5051789;28;20032;-72
2022/07/01 09:15:37;;;;;;;3.28;1.00;;;;;;;20.88;60.82;101818.78;5051941;28;20504;-75
2022/07/01 09:18:09;;;;;;;5.20;1.00;;;;;;;21.48;54.58;101830.50;5052405;28;20029;-73
2022/07/01 09:20:39;;;;;;;6.22;1.30;;;;;;;20.36;53.97;101830.34;5052405;28;20064;-73
2022/07/01 09:23:05;;;;;;;6.47;1.60;;;;;;;19.54;57.72;101831.59;5052779;28;20072;-75
2022/07/01 09:25:45;;;;;;;3.88;1.08;;;;;;;19.21;60.17;101834.38;5052083;28;20044;-77
2022/07/01 09:28:16;;;;;;;3.23;1.07;;;;;;;19.23;58.02;101840.47;5052105;28;20052;-73
2022/07/01 09:30:45;;;;;;;3.72;0.85;;;;;;;18.90;61.58;101848.63;5051602;28;20069;-73
2022/07/01 09:33:15;;;;;;;4.13;0.90;;;;;;;18.48;63.89;101845.03;5052003;28;20056;-74
2022/07/01 09:35:42;;;;;;;5.38;1.33;;;;;;;17.78;64.62;101848.03;5051719;28;20021;-75
2022/07/01 09:38:11;;;;;;;4.13;1.25;;;;;;;17.39;66.83;101845.81;5051668;28;20036;-75
2022/07/01 09:40:51;;;;;;;7.55;1.20;;;;;;;16.67;68.29;101854.84;5050188;28;20369;-74
2022/07/01 09:43:23;;;;;;;8.25;1.20;;;;;;;16.13;72.90;101860.19;5051942;28;20136;-75
2022/07/01 09:46:10;;;;;;;5.25;1.40;;;;;;;15.63;76.92;101861.41;5051560;28;20033;-72
2022/07/01 09:48:35;;;;;;;6.85;1.52;;;;;;;15.18;83.97;101870.13;5055078;28;20032;-77
2022/07/01 09:51:02;;;;;;;3.42;1.25;;;;;;;14.89;86.58;101860.31;5055115;28;20485;-72
2022/07/01 09:53:28;;;;;;;4.80;1.40;;;;;;;14.81;89.79;101860.19;5054776;28;20031;-80
2022/07/01 09:55:54;;;;;;;3.83;1.40;;;;;;;15.20;89.34;101849.41;5055344;28;20025;-73
2022/07/01 09:58:20;;;;;;;2.92;1.40;;;;;;;15.80;87.90;101853.59;5055184;28;20423;-72
2022/07/01 10:00:46;;;;;;;5.70;1.50;;;;;;;16.99;88.54;101857.97;5054675;28;20147;-71
2022/07/01 10:03:13;;;;;;;3.15;1.35;;;;;;;19.08;71.22;101851.13;5053358;28;20040;-73
2022/07/01 10:05:53;;;;;;;6.10;1.50;;;;;;;21.07;64.51;101849.88;5054918;28;20110;-73
2022/07/01 10:08:50;;;;;;;5.38;1.50;;;;;;;22.45;59.19;101850.25;5037267;28;20119;-74
2022/07/01 10:11:37;;;;;;;8.73;1.88;;;;;;;23.61;51.07;101850.91;5054784;28;20036;-73
2022/07/01 10:14:08;;;;;;;8.07;1.85;;;;;;;24.23;48.29;101852.63;5055084;28;20059;-73
2022/07/01 10:16:36;;;;;;;4.72;1.52;;;;;;;24.64;51.71;101845.38;5054677;28;20029;-74
2022/07/01 10:19:28;;;;;;;7.20;1.77;;;;;;;24.91;48.92;101848.09;5053791;28;20025;-76
2022/07/01 10:21:57;;;;;;;6.97;1.85;;;;;;;24.70;47.44;101849.16;5054618;28;20103;-81
2022/07/01 10:24:24;;;;;;;8.95;1.98;;;;;;;24.43;48.76;101843.66;5053423;28;20124;-73
2022/07/01 10:26:51;;;;;;;7.82;2.00;;;;;;;23.20;50.61;101847.97;5054514;28;20017;-75
2022/07/01 10:29:36;;;;;;;8.23;2.38;;;;;;;21.57;53.61;101860.22;5054535;28;20036;-76
2022/07/01 10:32:11;;;;;;;11.30;2.05;;;;;;;20.37;60.83;101862.59;5054530;28;20063;-75
2022/07/01 10:34:41;;;;;;;5.18;1.83;;;;;;;19.82;59.95;101855.47;5052906;28;20406;-72
2022/07/01 10:37:09;;;;;;;8.57;2.03;;;;;;;20.75;60.72;101857.28;5054147;28;20133;-74
2022/07/01 10:39:53;;;;;;;8.88;2.50;;;;;;;21.56;55.81;101869.38;5054736;28;20028;-75
2022/07/01 10:42:18;;;;;;;7.50;1.90;;;;;;;21.49;54.83;101872.78;5054177;28;20041;-76
2022/07/01 10:45:05;;;;;;;7.18;1.67;;;;;;;22.68;52.70;101870.91;5052659;28;20041;-75
2022/07/01 10:47:31;;;;;;;7.13;1.60;;;;;;;24.13;47.44;101854.06;5052975;28;20036;-75
2022/07/01 10:50:07;;;;;;;3.78;1.33;;;;;;;24.65;46.76;101860.66;5053973;28;20498;-76
2022/07/01 10:52:33;;;;;;;9.57;2.20;;;;;;;23.66;46.13;101862.00;5054043;28;20067;-73
2022/07/01 10:55:00;;;;;;;4.65;1.58;;;;;;;23.44;46.20;101864.81;5052702;28;20087;-75
2022/07/01 10:57:38;;;;;;;8.60;1.60;;;;;;;22.78;48.20;101862.41;5053850;28;20546;-75
2022/07/01 11:00:04;;;;;;;6.03;1.73;;;;;;;22.23;49.63;101865.63;5036472;28;20041;-77
2022/07/01 11:02:31;;;;;;;9.82;2.03;;;;;;;21.74;49.51;101869.00;5053706;28;20394;-76
2022/07/01 11:05:17;;;;;;;5.43;1.50;;;;;;;22.35;45.55;101872.25;5052270;28;20040;-75
2022/07/01 11:07:45;;;;;;;7.05;1.45;;;;;;;23.27;47.78;101866.16;5053148;28;20041;-74
2022/07/01 11:10:11;;;;;;;6.47;1.77;;;;;;;22.80;48.05;101863.06;5053730;28;20103;-73
2022/07/01 11:12:37;;;;;;;5.28;1.27;;;;;;;22.08;47.03;101868.38;5054075;28;20029;-80
2022/07/01 11:15:07;;;;;;;5.78;1.60;;;;;;;21.96;52.96;101867.16;5054235;28;20442;-75
2022/07/01 11:17:34;;;;;;;7.60;1.88;;;;;;;23.60;50.38;101871.78;5054655;28;20039;-73
2022/07/01 11:20:04;;;;;;;5.88;1.60;;;;;;;24.92;43.36;101871.56;5053856;28;20029;-74